KLM809 KJFK-KIAD
Flight info
| Callsign | KLM809 |
|---|---|
| Flight time | 0h 42m |
| Altitude | 30000 |
| Route | TICKL METRO MERSR ARD MXE |
| Aircraft | DC93/M-SDFGIRWY/S |
Departure
| Time | 2026-05-09 07:59 |
|---|---|
| Airport | John F. Kennedy International Airport (KJFK) |
Arrival
| Time | 2026-05-09 08:41 |
|---|---|
| Airport | Washington Dulles International Airport (KIAD) |
| Time | Latitude | Longitude | Altitude | Speed | Heading |
|---|---|---|---|---|---|
| 2026-05-09 07:34 | 40.65035 | -73.79357 | 17 ft | 0 kts | 150° |
| 2026-05-09 07:45 | 40.65044 | -73.79363 | 17 ft | 4 kts | 150° |
| 2026-05-09 07:45 | 40.65064 | -73.79378 | 18 ft | 4 kts | 139° |
| 2026-05-09 07:45 | 40.65075 | -73.79403 | 21 ft | 4 kts | 76° |
| 2026-05-09 07:45 | 40.65066 | -73.79429 | 18 ft | 1 kts | 60° |
| 2026-05-09 07:46 | 40.65064 | -73.79434 | 19 ft | 0 kts | 60° |
| 2026-05-09 07:50 | 40.65065 | -73.79431 | 17 ft | 2 kts | 60° |
| 2026-05-09 07:50 | 40.65072 | -73.79416 | 17 ft | 1 kts | 60° |
| 2026-05-09 07:50 | 40.65081 | -73.79394 | 18 ft | 5 kts | 60° |
| 2026-05-09 07:51 | 40.65104 | -73.79341 | 17 ft | 9 kts | 60° |
| 2026-05-09 07:51 | 40.65149 | -73.79310 | 17 ft | 9 kts | 347° |
| 2026-05-09 07:51 | 40.65201 | -73.79274 | 17 ft | 11 kts | 62° |
| 2026-05-09 07:51 | 40.65198 | -73.79174 | 19 ft | 13 kts | 108° |
| 2026-05-09 07:52 | 40.65168 | -73.79048 | 19 ft | 16 kts | 107° |
| 2026-05-09 07:52 | 40.65137 | -73.78889 | 19 ft | 20 kts | 91° |
| 2026-05-09 07:52 | 40.65166 | -73.78701 | 22 ft | 23 kts | 59° |
| 2026-05-09 07:52 | 40.65249 | -73.78506 | 20 ft | 26 kts | 61° |
| 2026-05-09 07:53 | 40.65224 | -73.78290 | 20 ft | 17 kts | 121° |
| 2026-05-09 07:53 | 40.65161 | -73.78143 | 20 ft | 20 kts | 123° |
| 2026-05-09 07:53 | 40.65080 | -73.77974 | 20 ft | 24 kts | 121° |
| 2026-05-09 07:53 | 40.64992 | -73.77775 | 20 ft | 27 kts | 121° |
| 2026-05-09 07:54 | 40.64892 | -73.77553 | 20 ft | 30 kts | 120° |
| 2026-05-09 07:54 | 40.64784 | -73.77315 | 20 ft | 22 kts | 121° |
| 2026-05-09 07:54 | 40.64768 | -73.77179 | 21 ft | 12 kts | 52° |
| 2026-05-09 07:54 | 40.64818 | -73.77082 | 21 ft | 14 kts | 55° |
| 2026-05-09 07:55 | 40.64884 | -73.76963 | 22 ft | 18 kts | 53° |
| 2026-05-09 07:55 | 40.64964 | -73.76818 | 21 ft | 21 kts | 53° |
| 2026-05-09 07:55 | 40.64963 | -73.76645 | 21 ft | 20 kts | 71° |
| 2026-05-09 07:55 | 40.65077 | -73.76543 | 21 ft | 15 kts | 32° |
| 2026-05-09 07:56 | 40.65090 | -73.76447 | 23 ft | 6 kts | 121° |
| 2026-05-09 07:56 | 40.65090 | -73.76446 | 23 ft | 0 kts | 121° |
| 2026-05-09 07:57 | 40.65088 | -73.76443 | 24 ft | 2 kts | 121° |
| 2026-05-09 07:57 | 40.65077 | -73.76419 | 22 ft | 4 kts | 122° |
| 2026-05-09 07:58 | 40.65052 | -73.76370 | 22 ft | 8 kts | 129° |
| 2026-05-09 07:58 | 40.65002 | -73.76372 | 22 ft | 8 kts | 210° |
| 2026-05-09 07:58 | 40.64996 | -73.76377 | 22 ft | 0 kts | 210° |
| 2026-05-09 07:58 | 40.64980 | -73.76390 | 23 ft | 21 kts | 213° |
| 2026-05-09 07:59 | 40.64559 | -73.76735 | 20 ft | 118 kts | 211° |
| 2026-05-09 07:59 | 40.63653 | -73.77423 | 168 ft | 170 kts | 212° |
| 2026-05-09 07:59 | 40.62626 | -73.78164 | 1321 ft | 152 kts | 213° |
| 2026-05-09 07:59 | 40.61682 | -73.78798 | 2321 ft | 158 kts | 212° |
| 2026-05-09 08:00 | 40.60612 | -73.79448 | 2774 ft | 177 kts | 208° |
| 2026-05-09 08:00 | 40.59433 | -73.80095 | 3289 ft | 190 kts | 207° |
| 2026-05-09 08:00 | 40.58284 | -73.80973 | 3778 ft | 193 kts | 233° |
| 2026-05-09 08:00 | 40.57664 | -73.82523 | 4279 ft | 193 kts | 253° |
| 2026-05-09 08:01 | 40.57204 | -73.84214 | 4769 ft | 199 kts | 255° |
| 2026-05-09 08:01 | 40.56768 | -73.85959 | 5223 ft | 203 kts | 256° |
| 2026-05-09 08:01 | 40.56336 | -73.87739 | 5708 ft | 205 kts | 257° |
| 2026-05-09 08:01 | 40.55912 | -73.89541 | 6192 ft | 207 kts | 257° |
| 2026-05-09 08:02 | 40.55487 | -73.91351 | 6656 ft | 207 kts | 257° |
| 2026-05-09 08:02 | 40.55058 | -73.93157 | 7112 ft | 207 kts | 258° |
| 2026-05-09 08:02 | 40.54622 | -73.94957 | 7577 ft | 206 kts | 258° |
| 2026-05-09 08:02 | 40.54182 | -73.96743 | 8028 ft | 204 kts | 257° |
| 2026-05-09 08:03 | 40.53746 | -73.98485 | 8472 ft | 202 kts | 258° |
| 2026-05-09 08:03 | 40.53300 | -74.00227 | 8963 ft | 199 kts | 257° |
| 2026-05-09 08:03 | 40.52832 | -74.02045 | 9056 ft | 230 kts | 258° |
| 2026-05-09 08:03 | 40.52305 | -74.04162 | 9337 ft | 251 kts | 258° |
| 2026-05-09 08:04 | 40.51747 | -74.06396 | 9868 ft | 262 kts | 257° |
| 2026-05-09 08:04 | 40.51170 | -74.08718 | 10361 ft | 272 kts | 257° |
| 2026-05-09 08:04 | 40.50581 | -74.11128 | 10843 ft | 281 kts | 257° |
| 2026-05-09 08:04 | 40.49985 | -74.13616 | 11334 ft | 290 kts | 257° |
| 2026-05-09 08:05 | 40.49381 | -74.16179 | 11833 ft | 297 kts | 257° |
| 2026-05-09 08:05 | 40.48785 | -74.18761 | 12330 ft | 304 kts | 257° |
| 2026-05-09 08:05 | 40.48177 | -74.21448 | 12839 ft | 310 kts | 257° |
| 2026-05-09 08:05 | 40.47568 | -74.24187 | 13349 ft | 315 kts | 257° |
| 2026-05-09 08:06 | 40.46965 | -74.26936 | 13839 ft | 319 kts | 257° |
| 2026-05-09 08:06 | 40.46356 | -74.29749 | 14301 ft | 322 kts | 257° |
| 2026-05-09 08:06 | 40.45744 | -74.32598 | 14771 ft | 325 kts | 257° |
| 2026-05-09 08:06 | 40.45134 | -74.35439 | 15246 ft | 328 kts | 257° |
| 2026-05-09 08:07 | 40.44526 | -74.38264 | 15713 ft | 330 kts | 258° |
| 2026-05-09 08:07 | 40.43900 | -74.41167 | 16202 ft | 331 kts | 258° |
| 2026-05-09 08:07 | 40.43269 | -74.44092 | 16703 ft | 332 kts | 258° |
| 2026-05-09 08:07 | 40.42641 | -74.47013 | 17211 ft | 333 kts | 258° |
| 2026-05-09 08:08 | 40.42018 | -74.49906 | 17714 ft | 333 kts | 258° |
| 2026-05-09 08:08 | 40.41391 | -74.52827 | 18230 ft | 333 kts | 258° |
| 2026-05-09 08:08 | 40.40765 | -74.55747 | 18689 ft | 332 kts | 258° |
| 2026-05-09 08:08 | 40.40152 | -74.58600 | 19134 ft | 331 kts | 258° |
| 2026-05-09 08:09 | 40.39526 | -74.61507 | 19602 ft | 330 kts | 258° |
| 2026-05-09 08:09 | 40.38901 | -74.64400 | 20062 ft | 329 kts | 258° |
| 2026-05-09 08:09 | 40.38275 | -74.67278 | 20537 ft | 327 kts | 258° |
| 2026-05-09 08:09 | 40.37653 | -74.70117 | 21017 ft | 326 kts | 258° |
| 2026-05-09 08:10 | 40.36793 | -74.72861 | 21516 ft | 332 kts | 242° |
| 2026-05-09 08:10 | 40.35197 | -74.75108 | 22040 ft | 340 kts | 230° |
| 2026-05-09 08:10 | 40.33414 | -74.77088 | 22518 ft | 340 kts | 229° |
| 2026-05-09 08:10 | 40.31566 | -74.79008 | 23038 ft | 338 kts | 228° |
| 2026-05-09 08:11 | 40.29691 | -74.80862 | 23559 ft | 337 kts | 227° |
| 2026-05-09 08:11 | 40.27804 | -74.82667 | 23999 ft | 334 kts | 227° |
| 2026-05-09 08:11 | 40.25923 | -74.84435 | 24439 ft | 331 kts | 227° |
| 2026-05-09 08:11 | 40.24275 | -74.86365 | 24877 ft | 314 kts | 238° |
| 2026-05-09 08:12 | 40.21520 | -74.90656 | 25793 ft | 303 kts | 241° |
| 2026-05-09 08:12 | 40.20208 | -74.92804 | 26256 ft | 301 kts | 241° |
| 2026-05-09 08:12 | 40.18925 | -74.94924 | 26735 ft | 299 kts | 242° |
| 2026-05-09 08:13 | 40.17637 | -74.97055 | 27219 ft | 297 kts | 242° |
| 2026-05-09 08:13 | 40.16374 | -74.99143 | 27712 ft | 295 kts | 242° |
| 2026-05-09 08:13 | 40.15103 | -75.01236 | 28187 ft | 292 kts | 242° |
| 2026-05-09 08:13 | 40.14078 | -75.03432 | 28695 ft | 277 kts | 253° |
| 2026-05-09 08:14 | 40.13363 | -75.05735 | 29226 ft | 271 kts | 256° |
| 2026-05-09 08:14 | 40.12725 | -75.08052 | 29702 ft | 270 kts | 257° |
| 2026-05-09 08:14 | 40.12108 | -75.10392 | 29860 ft | 276 kts | 257° |
| 2026-05-09 08:14 | 40.11494 | -75.12809 | 29956 ft | 284 kts | 258° |
| 2026-05-09 08:15 | 40.10879 | -75.15293 | 30003 ft | 292 kts | 258° |
| 2026-05-09 08:15 | 40.10255 | -75.17866 | 30016 ft | 302 kts | 258° |
| 2026-05-09 08:15 | 40.08982 | -75.23232 | 30035 ft | 319 kts | 258° |
| 2026-05-09 08:16 | 40.07665 | -75.28908 | 30062 ft | 336 kts | 258° |
| 2026-05-09 08:16 | 40.05840 | -75.34694 | 30073 ft | 360 kts | 245° |
| 2026-05-09 08:17 | 40.02892 | -75.40171 | 30088 ft | 373 kts | 242° |
| 2026-05-09 08:17 | 39.99769 | -75.45626 | 30082 ft | 378 kts | 241° |
| 2026-05-09 08:18 | 39.96578 | -75.51166 | 30011 ft | 384 kts | 241° |
| 2026-05-09 08:18 | 39.93383 | -75.56805 | 30015 ft | 388 kts | 242° |
| 2026-05-09 08:19 | 39.90446 | -75.62645 | 30016 ft | 387 kts | 246° |
| 2026-05-09 08:19 | 39.87830 | -75.68776 | 30009 ft | 388 kts | 248° |
| 2026-05-09 08:20 | 39.85273 | -75.74994 | 29990 ft | 390 kts | 248° |
| 2026-05-09 08:20 | 39.82735 | -75.81243 | 29994 ft | 392 kts | 248° |
| 2026-05-09 08:21 | 39.80189 | -75.87517 | 29988 ft | 393 kts | 248° |
| 2026-05-09 08:21 | 39.77645 | -75.93808 | 29992 ft | 393 kts | 248° |
| 2026-05-09 08:22 | 39.75121 | -76.00068 | 30004 ft | 393 kts | 249° |
| 2026-05-09 08:22 | 39.72582 | -76.06370 | 30035 ft | 394 kts | 249° |
| 2026-05-09 08:23 | 39.70046 | -76.12676 | 30042 ft | 394 kts | 249° |
| 2026-05-09 08:23 | 39.67534 | -76.18958 | 30037 ft | 394 kts | 249° |
| 2026-05-09 08:24 | 39.65013 | -76.25291 | 30001 ft | 395 kts | 249° |
| 2026-05-09 08:24 | 39.63757 | -76.28470 | 29776 ft | 400 kts | 249° |
| 2026-05-09 08:24 | 39.62497 | -76.31660 | 29312 ft | 391 kts | 249° |
| 2026-05-09 08:25 | 39.61267 | -76.34749 | 28771 ft | 380 kts | 249° |
| 2026-05-09 08:25 | 39.60055 | -76.37779 | 28016 ft | 377 kts | 249° |
| 2026-05-09 08:25 | 39.58849 | -76.40786 | 27281 ft | 375 kts | 249° |
| 2026-05-09 08:25 | 39.57649 | -76.43775 | 26569 ft | 374 kts | 249° |
| 2026-05-09 08:26 | 39.56448 | -76.46755 | 25868 ft | 372 kts | 249° |
| 2026-05-09 08:26 | 39.55259 | -76.49699 | 25188 ft | 371 kts | 249° |
| 2026-05-09 08:26 | 39.54066 | -76.52648 | 24514 ft | 370 kts | 249° |
| 2026-05-09 08:26 | 39.52884 | -76.55569 | 23868 ft | 369 kts | 249° |
| 2026-05-09 08:27 | 39.51681 | -76.58536 | 23147 ft | 367 kts | 249° |
| 2026-05-09 08:27 | 39.50508 | -76.61436 | 22389 ft | 366 kts | 249° |
| 2026-05-09 08:27 | 39.49339 | -76.64350 | 21653 ft | 365 kts | 249° |
| 2026-05-09 08:27 | 39.48216 | -76.67171 | 20918 ft | 364 kts | 249° |
| 2026-05-09 08:28 | 39.47071 | -76.70059 | 20213 ft | 364 kts | 249° |
| 2026-05-09 08:28 | 39.45909 | -76.73002 | 19519 ft | 363 kts | 249° |
| 2026-05-09 08:28 | 39.44762 | -76.75926 | 18849 ft | 363 kts | 249° |
| 2026-05-09 08:28 | 39.43645 | -76.78794 | 18180 ft | 362 kts | 249° |
| 2026-05-09 08:29 | 39.42525 | -76.81706 | 17421 ft | 362 kts | 249° |
| 2026-05-09 08:29 | 39.41383 | -76.84662 | 16677 ft | 363 kts | 246° |
| 2026-05-09 08:29 | 39.40082 | -76.87478 | 15958 ft | 366 kts | 243° |
| 2026-05-09 08:29 | 39.38685 | -76.90237 | 15249 ft | 365 kts | 242° |
| 2026-05-09 08:30 | 39.37316 | -76.92876 | 14567 ft | 344 kts | 241° |
| 2026-05-09 08:30 | 39.36011 | -76.95379 | 13886 ft | 330 kts | 241° |
| 2026-05-09 08:30 | 39.34747 | -76.97781 | 13310 ft | 316 kts | 241° |
| 2026-05-09 08:30 | 39.33540 | -77.00080 | 12818 ft | 303 kts | 241° |
| 2026-05-09 08:31 | 39.32396 | -77.02265 | 12321 ft | 292 kts | 241° |
| 2026-05-09 08:31 | 39.31274 | -77.04402 | 11828 ft | 284 kts | 241° |
| 2026-05-09 08:31 | 39.30179 | -77.06501 | 11322 ft | 279 kts | 241° |
| 2026-05-09 08:31 | 39.29113 | -77.08571 | 10842 ft | 276 kts | 241° |
| 2026-05-09 08:32 | 39.28059 | -77.10624 | 10369 ft | 273 kts | 241° |
| 2026-05-09 08:32 | 39.27016 | -77.12670 | 9890 ft | 272 kts | 241° |
| 2026-05-09 08:32 | 39.24971 | -77.16683 | 8851 ft | 256 kts | 241° |
| 2026-05-09 08:33 | 39.24008 | -77.18540 | 8356 ft | 241 kts | 241° |
| 2026-05-09 08:33 | 39.23086 | -77.20297 | 7880 ft | 236 kts | 241° |
| 2026-05-09 08:33 | 39.22165 | -77.22047 | 7415 ft | 236 kts | 242° |
| 2026-05-09 08:33 | 39.21317 | -77.23843 | 6939 ft | 234 kts | 246° |
| 2026-05-09 08:34 | 39.20536 | -77.25684 | 6482 ft | 234 kts | 248° |
| 2026-05-09 08:34 | 39.19785 | -77.27510 | 5993 ft | 233 kts | 248° |
| 2026-05-09 08:34 | 39.19042 | -77.29367 | 5495 ft | 232 kts | 248° |
| 2026-05-09 08:34 | 39.18314 | -77.31228 | 5006 ft | 232 kts | 248° |
| 2026-05-09 08:35 | 39.17604 | -77.33092 | 4494 ft | 231 kts | 248° |
| 2026-05-09 08:35 | 39.16904 | -77.34966 | 4009 ft | 232 kts | 248° |
| 2026-05-09 08:35 | 39.16219 | -77.36838 | 3578 ft | 229 kts | 248° |
| 2026-05-09 08:35 | 39.15559 | -77.38665 | 3356 ft | 221 kts | 248° |
| 2026-05-09 08:36 | 39.14932 | -77.40435 | 3154 ft | 212 kts | 249° |
| 2026-05-09 08:36 | 39.14334 | -77.42121 | 3027 ft | 203 kts | 248° |
| 2026-05-09 08:36 | 39.13699 | -77.43698 | 2883 ft | 196 kts | 234° |
| 2026-05-09 08:36 | 39.12567 | -77.44579 | 2860 ft | 194 kts | 191° |
| 2026-05-09 08:37 | 39.11299 | -77.44169 | 2833 ft | 191 kts | 144° |
| 2026-05-09 08:37 | 39.10490 | -77.42864 | 2758 ft | 183 kts | 128° |
| 2026-05-09 08:37 | 39.09482 | -77.41987 | 2561 ft | 175 kts | 176° |
| 2026-05-09 08:37 | 39.08309 | -77.42070 | 2486 ft | 165 kts | 194° |
| 2026-05-09 08:38 | 39.07203 | -77.42313 | 2436 ft | 145 kts | 195° |
| 2026-05-09 08:38 | 39.06423 | -77.42543 | 2986 ft | 109 kts | 216° |
| 2026-05-09 08:38 | 39.05958 | -77.42917 | 2987 ft | 129 kts | 212° |
| 2026-05-09 08:38 | 39.04672 | -77.43170 | 2893 ft | 154 kts | 192° |
| 2026-05-09 08:39 | 39.03983 | -77.43202 | 2901 ft | 149 kts | 188° |
| 2026-05-09 08:39 | 39.02945 | -77.43334 | 2641 ft | 151 kts | 195° |
| 2026-05-09 08:39 | 39.01918 | -77.43424 | 2546 ft | 148 kts | 186° |
| 2026-05-09 08:39 | 39.00865 | -77.43484 | 2176 ft | 154 kts | 187° |
| 2026-05-09 08:40 | 38.99790 | -77.43513 | 1832 ft | 155 kts | 183° |
| 2026-05-09 08:40 | 38.98727 | -77.43588 | 1449 ft | 145 kts | 186° |
| 2026-05-09 08:40 | 38.97778 | -77.43587 | 1042 ft | 130 kts | 184° |
| 2026-05-09 08:40 | 38.96907 | -77.43604 | 737 ft | 121 kts | 181° |
| 2026-05-09 08:41 | 38.96072 | -77.43610 | 451 ft | 119 kts | 181° |
| 2026-05-09 08:41 | 38.95295 | -77.43598 | 286 ft | 95 kts | 180° |
| 2026-05-09 08:41 | 38.94780 | -77.43616 | 293 ft | 55 kts | 180° |
| 2026-05-09 08:41 | 38.94512 | -77.43632 | 292 ft | 28 kts | 196° |
| 2026-05-09 08:42 | 38.94335 | -77.43741 | 297 ft | 28 kts | 210° |
| 2026-05-09 08:42 | 38.94271 | -77.43788 | 298 ft | 9 kts | 210° |
| 2026-05-09 08:42 | 38.94213 | -77.43833 | 302 ft | 11 kts | 210° |
| 2026-05-09 08:42 | 38.94170 | -77.43918 | 299 ft | 14 kts | 274° |
| 2026-05-09 08:43 | 38.94243 | -77.43976 | 301 ft | 11 kts | 1° |
| 2026-05-09 08:43 | 38.94335 | -77.43974 | 301 ft | 15 kts | 1° |
| 2026-05-09 08:43 | 38.94458 | -77.43972 | 300 ft | 21 kts | 0° |
| 2026-05-09 08:43 | 38.94616 | -77.43974 | 294 ft | 21 kts | 346° |
| 2026-05-09 08:44 | 38.94656 | -77.44122 | 295 ft | 19 kts | 271° |
| 2026-05-09 08:44 | 38.94657 | -77.44181 | 297 ft | 1 kts | 270° |
| 2026-05-09 08:44 | 38.94584 | -77.44167 | 298 ft | 0 kts | 182° |